Time;durP1;ratioP1;P1;durP2;ratioP2;P2;SDS_P1;SDS_P2;PMS_P1;PMS_P2;Temp;Humidity;BMP_temperature;BMP_pressure;BME280_temperature;BME280_humidity;BME280_pressure;Samples;Min_cycle;Max_cycle;Signal;HPM_P1;HPM_P2
2022/08/04 00:00:10;;;;;;;21.23;12.25;;;;;;;30.76;70.72;97761.03;4981233;28;20046;-71
2022/08/04 00:03:04;;;;;;;15.05;10.93;;;;;;;30.80;71.94;97761.09;4978480;28;20120;-71
2022/08/04 00:06:09;;;;;;;19.25;11.60;;;;;;;30.83;70.79;97761.16;4979437;28;20643;-73
2022/08/04 00:08:59;;;;;;;17.95;11.55;;;;;;;30.87;70.79;97766.75;4979858;28;20050;-72
2022/08/04 00:11:52;;;;;;;20.13;10.90;;;;;;;30.99;70.16;97772.13;4983758;28;20070;-72
2022/08/04 00:14:50;;;;;;;23.65;11.75;;;;;;;30.88;70.46;97771.13;4987757;28;20070;-72
2022/08/04 00:17:42;;;;;;;23.10;12.10;;;;;;;30.79;70.39;97776.13;5001357;28;20050;-71
2022/08/04 00:20:37;;;;;;;21.70;12.02;;;;;;;30.80;69.02;97778.53;4987959;28;20132;-72
2022/08/04 00:23:22;;;;;;;17.13;11.70;;;;;;;30.97;68.92;97788.28;4989308;28;20057;-72
2022/08/04 00:26:32;;;;;;;19.38;11.93;;;;;;;30.95;69.97;97785.09;4989041;28;20161;-72
2022/08/04 00:29:22;;;;;;;15.52;11.07;;;;;;;30.83;70.43;97788.06;4988683;28;20647;-72
2022/08/04 00:32:07;;;;;;;16.00;11.63;;;;;;;30.96;69.86;97789.47;4988814;28;20073;-71
2022/08/04 00:35:20;;;;;;;23.42;12.02;;;;;;;30.81;69.99;97793.97;4988036;28;20108;-71
2022/08/04 00:38:03;;;;;;;20.65;11.13;;;;;;;30.73;70.08;97777.63;4989207;28;20061;-71
2022/08/04 00:41:12;;;;;;;25.15;11.80;;;;;;;30.74;71.09;97779.19;4988942;28;20070;-71
2022/08/04 00:44:32;;;;;;;18.20;11.45;;;;;;;30.74;69.23;97776.44;4988022;28;20043;-71
2022/08/04 00:47:36;;;;;;;20.52;12.77;;;;;;;30.68;70.55;97773.16;4988325;28;20048;-70
2022/08/04 00:50:21;;;;;;;21.23;13.30;;;;;;;30.67;70.66;97779.91;4987608;28;20065;-71
2022/08/04 00:53:25;;;;;;;22.50;12.25;;;;;;;30.72;71.11;97787.88;4988613;28;20064;-71
2022/08/04 00:56:22;;;;;;;28.33;13.98;;;;;;;30.50;70.78;97795.03;4988497;28;20157;-70
2022/08/04 00:59:39;;;;;;;24.35;14.07;;;;;;;30.63;70.55;97790.13;4988505;28;20121;-71
2022/08/04 01:02:41;;;;;;;22.60;15.90;;;;;;;30.66;70.08;97783.03;4988125;28;20054;-71
2022/08/04 01:06:00;;;;;;;22.30;17.15;;;;;;;30.81;69.63;97785.66;4987333;28;20493;-71
2022/08/04 01:09:16;;;;;;;28.00;16.90;;;;;;;30.88;69.50;97790.53;4988227;28;20132;-71
2022/08/04 01:12:49;;;;;;;25.77;16.58;;;;;;;30.89;69.71;97800.41;4987487;28;20097;-70
2022/08/04 01:15:53;;;;;;;28.77;16.90;;;;;;;30.98;69.84;97798.22;4920941;28;20135;-71
2022/08/04 01:19:19;;;;;;;33.63;19.20;;;;;;;30.73;70.03;97789.47;4968375;28;20125;-69
2022/08/04 01:22:24;;;;;;;35.13;18.45;;;;;;;30.86;69.33;97792.88;4951421;28;20632;-71
2022/08/04 01:25:19;;;;;;;33.95;19.90;;;;;;;30.81;68.84;97784.84;4973203;28;20562;-70
2022/08/04 01:28:24;;;;;;;34.40;19.95;;;;;;;30.81;69.02;97784.84;4988174;28;20061;-71
2022/08/04 01:31:32;;;;;;;31.45;19.08;;;;;;;31.14;68.55;97783.41;4987428;28;20070;-70
2022/08/04 01:34:22;;;;;;;37.28;19.80;;;;;;;31.10;67.91;97785.34;4987300;28;20046;-71
2022/08/04 01:37:45;;;;;;;32.65;20.52;;;;;;;31.06;67.94;97793.59;4970528;28;20061;-71
2022/08/04 01:40:36;;;;;;;35.25;20.60;;;;;;;31.31;67.42;97802.25;4967052;28;20125;-71
2022/08/04 01:43:20;;;;;;;30.75;20.58;;;;;;;31.31;67.15;97793.16;4984047;28;20140;-71
2022/08/04 01:46:10;;;;;;;36.13;20.13;;;;;;;31.05;68.10;97794.78;4987284;28;20054;-69
2022/08/04 01:48:54;;;;;;;31.55;20.50;;;;;;;31.37;68.27;97786.91;4987912;28;20305;-71
2022/08/04 01:51:46;;;;;;;32.03;20.40;;;;;;;31.33;68.21;97793.56;4986848;28;20884;-71
2022/08/04 01:54:31;;;;;;;33.35;20.75;;;;;;;31.72;67.25;97787.78;4987209;28;20062;-71
2022/08/04 01:57:22;;;;;;;26.60;20.10;;;;;;;31.63;67.30;97801.94;4987167;28;20480;-71
2022/08/04 02:00:26;;;;;;;31.27;20.58;;;;;;;31.53;67.52;97813.72;4987075;28;20051;-72
2022/08/04 02:03:15;;;;;;;28.98;19.98;;;;;;;31.49;67.24;97823.94;4972116;28;20093;-70
2022/08/04 02:06:09;;;;;;;32.50;19.40;;;;;;;31.98;65.60;97829.31;4986613;28;20054;-71
2022/08/04 02:09:15;;;;;;;31.42;19.27;;;;;;;32.41;65.61;97844.88;4988746;28;20110;-71
2022/08/04 02:12:08;;;;;;;34.97;20.20;;;;;;;31.96;66.28;97848.31;4995387;28;20669;-71
2022/08/04 02:15:05;;;;;;;36.35;21.63;;;;;;;32.10;65.90;97850.53;4990362;28;20050;-72
2022/08/04 02:18:03;;;;;;;39.35;22.42;;;;;;;32.02;66.60;97848.03;4986877;28;20042;-71
2022/08/04 02:20:55;;;;;;;34.90;21.73;;;;;;;32.17;66.25;97850.59;4973354;28;20105;-72
2022/08/04 02:23:40;;;;;;;38.03;22.70;;;;;;;32.21;65.95;97858.16;4986940;28;20056;-72
2022/08/04 02:26:34;;;;;;;36.70;22.25;;;;;;;31.88;66.66;97863.28;4986304;28;20359;-71
2022/08/04 02:29:29;;;;;;;36.20;22.75;;;;;;;32.33;65.26;97871.78;4986300;28;20145;-72
2022/08/04 02:32:38;;;;;;;38.17;24.30;;;;;;;32.79;63.90;97871.50;4983226;28;20050;-70
2022/08/04 02:35:26;;;;;;;34.03;23.67;;;;;;;32.54;64.32;97869.25;4986409;28;20056;-72
2022/08/04 02:38:39;;;;;;;38.58;23.70;;;;;;;33.53;62.12;97869.72;4984559;28;20085;-73
2022/08/04 02:41:29;;;;;;;47.53;26.77;;;;;;;33.53;61.05;97870.53;4985145;28;20050;-73
2022/08/04 02:44:29;;;;;;;44.78;26.55;;;;;;;33.68;61.55;97882.56;5003310;28;20049;-71
2022/08/04 02:47:20;;;;;;;53.28;28.27;;;;;;;32.97;61.90;97883.56;5005483;28;20120;-73
2022/08/04 02:50:29;;;;;;;33.00;24.48;;;;;;;33.16;60.69;97881.78;5005702;28;20061;-73
2022/08/04 02:53:22;;;;;;;38.42;24.48;;;;;;;33.61;61.20;97876.13;5005505;28;20081;-72
2022/08/04 02:56:06;;;;;;;46.67;25.80;;;;;;;33.22;62.61;97874.66;4990520;28;20061;-73
2022/08/04 02:59:09;;;;;;;41.22;24.45;;;;;;;33.88;60.70;97876.69;4969127;28;20049;-73
2022/08/04 03:01:51;;;;;;;41.63;24.75;;;;;;;33.71;60.27;97881.78;4984528;28;20054;-73
2022/08/04 03:05:09;;;;;;;43.63;24.15;;;;;;;34.19;59.23;97871.72;4966287;28;20061;-70
2022/08/04 03:08:12;;;;;;;40.30;24.00;;;;;;;34.58;58.93;97884.94;4966699;28;20054;-72
2022/08/04 03:11:17;;;;;;;48.28;23.73;;;;;;;34.97;58.68;97889.78;4982956;28;20074;-72
2022/08/04 03:14:10;;;;;;;39.20;24.23;;;;;;;34.81;58.48;97890.19;4985518;28;20369;-72
2022/08/04 03:17:23;;;;;;;38.97;23.90;;;;;;;34.41;58.16;97889.28;4985390;28;20116;-72
2022/08/04 03:20:22;;;;;;;40.95;23.48;;;;;;;34.46;59.42;97886.13;4985662;28;20062;-70
2022/08/04 03:23:29;;;;;;;39.53;24.83;;;;;;;34.16;59.12;97905.91;4985379;28;20042;-71
2022/08/04 03:26:40;;;;;;;42.88;25.75;;;;;;;34.08;60.29;97905.81;4985011;28;20057;-73
2022/08/04 03:29:55;;;;;;;45.17;25.60;;;;;;;33.94;59.14;97903.78;4982048;28;20058;-72
2022/08/04 03:33:07;;;;;;;47.08;25.65;;;;;;;34.51;58.39;97894.88;4985398;28;20377;-73
2022/08/04 03:36:23;;;;;;;42.58;25.65;;;;;;;34.16;59.43;97897.53;4971071;28;20042;-73
2022/08/04 03:39:29;;;;;;;39.13;24.60;;;;;;;34.51;57.04;97894.88;4987081;28;20074;-72
2022/08/04 03:42:42;;;;;;;40.95;25.65;;;;;;;34.67;58.22;97890.97;4990110;28;20116;-73
2022/08/04 03:45:33;;;;;;;38.38;24.65;;;;;;;35.37;55.91;97894.22;4979150;28;20125;-74
2022/08/04 03:49:08;;;;;;;34.90;22.77;;;;;;;35.23;56.89;97883.06;4955006;28;20051;-70
2022/08/04 03:55:37;;;;;;;37.75;23.30;;;;;;;34.33;58.79;97896.81;4952330;28;20144;-71
2022/08/04 03:58:31;;;;;;;44.90;24.70;;;;;;;34.33;59.71;97894.03;4969849;28;20395;-71
2022/08/04 04:01:38;;;;;;;36.00;23.20;;;;;;;34.90;57.20;97887.81;4969351;28;20130;-71
2022/08/04 04:04:52;;;;;;;36.92;22.85;;;;;;;35.00;55.89;97880.66;4956626;28;20047;-72
2022/08/04 04:08:11;;;;;;;40.42;24.50;;;;;;;35.43;54.73;97881.47;4950360;28;20059;-73
2022/08/04 04:11:44;;;;;;;38.75;22.80;;;;;;;35.98;54.29;97870.97;4958568;28;20050;-72
2022/08/04 04:14:55;;;;;;;32.50;20.92;;;;;;;36.07;52.78;97872.13;4941613;28;20038;-72
2022/08/04 04:18:14;;;;;;;32.63;19.85;;;;;;;35.22;53.46;97879.47;4952677;28;20054;-72
2022/08/04 04:21:27;;;;;;;32.15;19.70;;;;;;;35.47;54.79;97876.66;4965260;28;20056;-71
2022/08/04 04:24:32;;;;;;;35.30;21.77;;;;;;;35.61;52.67;97875.03;4966809;28;20051;-73
2022/08/04 04:27:23;;;;;;;45.75;24.17;;;;;;;36.12;51.59;97876.50;4962746;28;20055;-73
2022/08/04 04:30:15;;;;;;;36.25;22.60;;;;;;;36.40;50.37;97880.38;4961552;28;20066;-73
2022/08/04 04:33:16;;;;;;;41.08;24.55;;;;;;;36.05;51.79;97882.91;4946075;28;20057;-72
2022/08/04 04:36:49;;;;;;;39.22;23.52;;;;;;;36.50;51.48;97878.72;4957888;28;20054;-72
2022/08/04 04:39:31;;;;;;;35.40;22.70;;;;;;;36.80;51.69;97886.56;4957322;28;20069;-72
2022/08/04 04:42:54;;;;;;;35.95;21.08;;;;;;;36.41;53.58;97888.38;4959326;28;20502;-75
2022/08/04 04:46:12;;;;;;;32.00;20.00;;;;;;;37.25;50.24;97891.44;4966540;28;20046;-73
2022/08/04 04:49:22;;;;;;;27.45;19.13;;;;;;;37.07;49.49;97888.75;4943881;28;20779;-76
2022/08/04 04:52:12;;;;;;;37.93;22.77;;;;;;;36.86;50.81;97889.72;4956838;28;20050;-72
2022/08/04 04:55:16;;;;;;;36.47;19.42;;;;;;;35.92;53.35;97890.13;4968721;28;20351;-72
2022/08/04 04:58:02;;;;;;;41.67;22.77;;;;;;;36.31;51.66;97891.22;4952848;28;20050;-72
2022/08/04 05:01:10;;;;;;;37.45;20.13;;;;;;;36.93;51.27;97886.88;4968016;28;20146;-72
2022/08/04 05:04:15;;;;;;;27.38;16.17;;;;;;;37.45;49.57;97886.84;4955584;28;20426;-72
2022/08/04 05:07:15;;;;;;;25.05;15.32;;;;;;;37.94;49.48;97893.16;4949475;28;20067;-72
2022/08/04 05:10:07;;;;;;;25.52;15.65;;;;;;;37.86;49.05;97883.25;4952418;28;20043;-73
2022/08/04 05:12:58;;;;;;;28.75;16.67;;;;;;;38.24;47.11;97894.44;4968213;28;20125;-73
2022/08/04 05:16:26;;;;;;;33.97;19.20;;;;;;;37.68;50.27;97882.66;4935274;28;20058;-73
2022/08/04 05:19:18;;;;;;;28.30;18.17;;;;;;;38.21;47.53;97886.06;4951398;28;20055;-72
2022/08/04 05:22:10;;;;;;;33.80;19.50;;;;;;;38.03;48.10;97883.44;4968476;28;20950;-72
2022/08/04 05:25:21;;;;;;;29.83;18.80;;;;;;;38.13;51.52;97885.38;4938745;28;20047;-71
2022/08/04 05:28:13;;;;;;;27.95;16.33;;;;;;;37.74;51.31;97875.38;4954023;28;20079;-72
2022/08/04 05:31:25;;;;;;;29.33;16.10;;;;;;;38.12;48.64;97876.19;4958411;28;20116;-72
2022/08/04 05:34:32;;;;;;;27.30;14.52;;;;;;;38.45;46.38;97872.94;4957760;28;20071;-72
2022/08/04 05:37:22;;;;;;;30.63;14.93;;;;;;;37.91;50.37;97870.78;4942958;28;20066;-71
2022/08/04 05:40:15;;;;;;;25.33;14.68;;;;;;;38.60;47.59;97867.94;4958322;28;20046;-70
2022/08/04 05:43:12;;;;;;;28.38;15.48;;;;;;;38.57;46.89;97869.59;4961481;28;20054;-72
2022/08/04 05:46:01;;;;;;;29.85;16.45;;;;;;;38.67;46.89;97863.03;4969115;28;20056;-70
2022/08/04 05:48:52;;;;;;;32.53;15.05;;;;;;;37.76;49.71;97856.19;4965159;28;20047;-71
2022/08/04 05:51:42;;;;;;;26.38;14.30;;;;;;;37.88;49.09;97852.81;4955698;28;20546;-72
2022/08/04 05:54:34;;;;;;;26.33;13.45;;;;;;;37.84;50.75;97854.88;4955066;28;20055;-73
2022/08/04 05:57:24;;;;;;;22.02;14.35;;;;;;;38.18;48.20;97848.50;4958079;28;20066;-71
2022/08/04 06:00:07;;;;;;;24.08;13.85;;;;;;;38.32;49.38;97853.88;4957145;28;20050;-71
2022/08/04 06:03:17;;;;;;;28.73;15.52;;;;;;;37.78;50.11;97848.16;4965129;28;20509;-71
2022/08/04 06:06:00;;;;;;;25.02;13.95;;;;;;;38.24;48.19;97846.81;4961720;28;20456;-71
2022/08/04 06:08:50;;;;;;;28.02;14.55;;;;;;;37.71;49.15;97837.03;4954729;28;20070;-71
2022/08/04 06:11:34;;;;;;;21.60;12.95;;;;;;;38.07;47.89;97833.81;4963224;28;20546;-71
2022/08/04 06:14:51;;;;;;;24.83;12.73;;;;;;;38.26;50.70;97843.59;4964883;28;20146;-71
2022/08/04 06:17:45;;;;;;;25.23;14.95;;;;;;;36.84;49.95;97835.00;4962174;28;20482;-71
2022/08/04 06:20:55;;;;;;;25.90;14.63;;;;;;;38.19;48.08;97850.06;4956167;28;20557;-70
2022/08/04 06:23:41;;;;;;;30.88;13.88;;;;;;;38.06;50.54;97849.00;4964207;28;20378;-70
2022/08/04 06:26:42;;;;;;;22.45;14.20;;;;;;;38.03;52.13;97841.44;4959506;28;20074;-74
2022/08/04 06:29:33;;;;;;;26.00;14.85;;;;;;;38.06;48.74;97846.19;4963576;28;20070;-73
2022/08/04 06:32:46;;;;;;;30.00;16.83;;;;;;;37.17;50.76;97840.38;4958395;28;20067;-73
2022/08/04 06:35:30;;;;;;;25.25;15.30;;;;;;;37.98;50.43;97840.69;4948301;28;20675;-71
2022/08/04 06:38:20;;;;;;;22.17;14.55;;;;;;;37.68;52.00;97844.25;4953405;28;20118;-72
2022/08/04 06:41:09;;;;;;;24.67;14.98;;;;;;;37.70;50.26;97835.44;4946921;28;21999;-70
2022/08/04 06:43:51;;;;;;;25.63;13.80;;;;;;;38.26;48.46;97838.75;4957679;28;20058;-68
2022/08/04 06:46:48;;;;;;;23.38;14.45;;;;;;;37.92;50.01;97839.56;4960235;28;20147;-66
2022/08/04 06:49:44;;;;;;;27.15;15.45;;;;;;;38.38;49.81;97835.38;4963781;28;20077;-70
2022/08/04 06:52:53;;;;;;;24.25;14.70;;;;;;;37.23;52.14;97830.31;4963373;28;20055;-69
2022/08/04 06:55:43;;;;;;;23.00;13.98;;;;;;;37.46;50.01;97826.88;4963021;28;20134;-68
2022/08/04 06:58:27;;;;;;;23.27;12.70;;;;;;;38.14;50.25;97828.09;4956423;28;20058;-69
2022/08/04 07:01:20;;;;;;;26.10;14.50;;;;;;;37.67;49.85;97830.69;4959531;28;20380;-69
2022/08/04 07:04:10;;;;;;;28.10;14.38;;;;;;;37.96;49.96;97823.50;4953766;28;20074;-69
2022/08/04 07:06:59;;;;;;;23.08;14.13;;;;;;;37.73;49.04;97817.81;4942195;28;20062;-70
2022/08/04 07:09:41;;;;;;;21.33;13.63;;;;;;;36.81;53.64;97824.63;4947527;28;20527;-73
2022/08/04 07:12:31;;;;;;;23.08;14.68;;;;;;;37.02;51.89;97817.28;4958090;28;20431;-69
2022/08/04 07:15:28;;;;;;;21.88;12.75;;;;;;;37.71;51.68;97820.22;4965661;28;20047;-71
2022/08/04 07:18:04;;;;;;;21.58;13.45;;;;;;;37.95;50.50;97812.72;4963806;28;20128;-70
2022/08/04 07:20:53;;;;;;;;;;;;;;;37.80;50.48;97812.91;4965949;28;20042;-69
2022/08/04 07:23:36;;;;;;;23.17;13.25;;;;;;;37.58;52.63;97801.13;4962369;28;19933;-71
2022/08/04 07:26:28;;;;;;;22.92;12.05;;;;;;;37.61;51.90;97803.13;4958208;28;20066;-71
2022/08/04 07:29:10;;;;;;;24.70;12.73;;;;;;;36.95;54.18;97792.94;4959181;28;20471;-70
2022/08/04 07:32:00;;;;;;;17.90;11.65;;;;;;;37.09;53.79;97794.84;4959265;28;20441;-70
2022/08/04 07:34:44;;;;;;;20.67;12.30;;;;;;;37.54;52.46;97791.19;4962238;28;20161;-71
2022/08/04 07:37:43;;;;;;;18.20;11.85;;;;;;;37.54;51.89;97791.19;4948947;28;20054;-72
2022/08/04 07:40:18;;;;;;;16.27;10.70;;;;;;;37.49;52.69;97798.06;4948860;28;20051;-72
2022/08/04 07:43:15;;;;;;;27.50;12.95;;;;;;;37.26;52.81;97783.91;4957761;28;20046;-72
2022/08/04 07:46:11;;;;;;;19.77;11.52;;;;;;;37.67;54.04;97777.50;4956783;28;20142;-72
2022/08/04 07:48:54;;;;;;;17.70;11.75;;;;;;;37.50;52.62;97771.66;4963541;28;20050;-72
2022/08/04 07:51:44;;;;;;;22.38;11.68;;;;;;;37.84;53.74;97776.47;4961136;28;20060;-72
2022/08/04 07:54:26;;;;;;;21.85;12.40;;;;;;;37.17;53.19;97771.22;4964176;28;20085;-72
2022/08/04 07:57:15;;;;;;;18.35;10.82;;;;;;;37.42;52.19;97764.53;4963446;28;20054;-72
2022/08/04 08:00:07;;;;;;;25.15;11.68;;;;;;;37.49;53.56;97764.47;4964220;28;20047;-72
2022/08/04 08:02:58;;;;;;;20.73;11.98;;;;;;;37.40;53.17;97764.16;4948708;28;20479;-72
2022/08/04 08:05:40;;;;;;;18.88;11.13;;;;;;;37.69;52.75;97758.25;4964278;28;20050;-71
2022/08/04 08:08:49;;;;;;;27.20;11.23;;;;;;;37.78;52.59;97758.56;4959913;28;20493;-72
2022/08/04 08:11:45;;;;;;;17.50;11.20;;;;;;;37.35;53.61;97759.81;4942811;28;20055;-71
2022/08/04 08:14:41;;;;;;;19.17;11.90;;;;;;;37.73;51.00;97745.00;4952862;28;20492;-72
2022/08/04 08:17:37;;;;;;;20.85;12.50;;;;;;;37.88;51.19;97743.59;4955510;28;20047;-71
2022/08/04 08:20:33;;;;;;;23.42;12.10;;;;;;;37.65;51.32;97743.53;4953025;28;20051;-72
2022/08/04 08:23:29;;;;;;;19.13;11.35;;;;;;;37.52;51.55;97746.81;4943360;28;20051;-72
2022/08/04 08:26:05;;;;;;;26.48;12.20;;;;;;;37.23;53.77;97752.75;4958640;28;20752;-70
2022/08/04 08:28:54;;;;;;;;;;;;;;;37.36;51.87;97739.03;4965287;28;20062;-71
2022/08/04 08:31:43;;;;;;;19.67;11.68;;;;;;;37.40;51.30;97741.78;4949256;28;19930;-71
2022/08/04 08:34:39;;;;;;;19.67;12.40;;;;;;;37.38;52.13;97730.22;4960673;28;20062;-70
2022/08/04 08:37:43;;;;;;;19.90;11.48;;;;;;;36.83;52.38;97729.16;4930327;28;20051;-70
2022/08/04 08:40:50;;;;;;;22.83;11.55;;;;;;;36.95;53.72;97733.44;4957968;28;20066;-71
2022/08/04 08:44:06;;;;;;;27.33;11.83;;;;;;;37.13;53.86;97734.09;4960574;28;20054;-70
2022/08/04 08:47:53;;;;;;;26.15;12.43;;;;;;;37.41;54.17;97720.97;4954731;28;20145;-72
2022/08/04 08:51:23;;;;;;;17.40;11.32;;;;;;;37.30;52.61;97720.31;4985968;28;20049;-72
2022/08/04 08:54:57;;;;;;;25.80;12.45;;;;;;;36.48;53.23;97710.66;4977028;28;20569;-70
2022/08/04 08:57:46;;;;;;;19.80;12.15;;;;;;;36.77;53.29;97703.66;4969564;28;20491;-72
2022/08/04 09:01:06;;;;;;;17.90;10.55;;;;;;;36.58;55.91;97705.00;4989753;28;20050;-67
2022/08/04 09:04:03;;;;;;;21.80;12.18;;;;;;;36.60;55.07;97693.41;4989021;28;20054;-70
2022/08/04 09:07:12;;;;;;;16.80;10.75;;;;;;;36.94;52.85;97689.91;4979718;28;20136;-70
2022/08/04 09:10:20;;;;;;;19.92;11.50;;;;;;;36.56;54.99;97690.66;4978815;28;20120;-70
2022/08/04 09:13:26;;;;;;;21.73;10.85;;;;;;;36.63;56.68;97687.78;4979661;28;20152;-70
2022/08/04 09:16:23;;;;;;;18.42;11.38;;;;;;;35.89;56.58;97678.75;4979969;28;20054;-70
2022/08/04 09:19:22;;;;;;;19.50;11.02;;;;;;;36.14;55.67;97677.81;4967292;28;20051;-70
2022/08/04 09:22:50;;;;;;;22.05;11.15;;;;;;;36.96;55.06;97676.31;4995615;28;20073;-72
2022/08/04 09:25:53;;;;;;;17.55;10.50;;;;;;;36.51;54.57;97670.72;4977668;28;20047;-71
2022/08/04 09:29:14;;;;;;;23.17;11.15;;;;;;;36.61;53.61;97661.44;4977374;28;20554;-72
2022/08/04 09:32:38;;;;;;;16.33;10.55;;;;;;;36.14;55.22;97658.25;4981462;28;20101;-72
2022/08/04 09:35:29;;;;;;;23.35;11.02;;;;;;;36.07;54.71;97645.91;4960250;28;20054;-72
2022/08/04 09:38:30;;;;;;;23.02;12.23;;;;;;;36.92;54.54;97641.97;4973977;28;20168;-70
2022/08/04 09:41:43;;;;;;;16.63;10.60;;;;;;;36.45;53.39;97637.63;4976243;28;20056;-73
2022/08/04 09:45:03;;;;;;;21.73;11.52;;;;;;;36.66;54.33;97652.66;4983290;28;20081;-73
2022/08/04 09:47:52;;;;;;;19.25;12.23;;;;;;;36.52;54.98;97641.59;4975377;28;20437;-76
2022/08/04 09:50:49;;;;;;;17.50;10.55;;;;;;;36.26;54.85;97643.81;4971777;28;20062;-71
2022/08/04 09:53:50;;;;;;;23.33;12.68;;;;;;;36.50;54.84;97643.97;4940444;28;20055;-70
2022/08/04 09:56:50;;;;;;;27.48;12.73;;;;;;;36.41;54.94;97620.09;4940216;28;20058;-70
2022/08/04 09:59:53;;;;;;;22.45;11.15;;;;;;;36.37;55.76;97622.16;4937963;28;20047;-74
2022/08/04 10:03:01;;;;;;;21.17;12.13;;;;;;;35.74;57.24;97618.66;4954082;28;20050;-74
2022/08/04 10:06:30;;;;;;;18.58;11.10;;;;;;;35.91;56.60;97620.50;4942613;28;20079;-69
2022/08/04 10:09:36;;;;;;;30.63;12.18;;;;;;;35.42;57.10;97606.44;4954727;28;20054;-70
2022/08/04 10:12:48;;;;;;;29.30;12.82;;;;;;;35.32;56.80;97603.72;4955806;28;20391;-75
2022/08/04 10:16:06;;;;;;;22.23;13.20;;;;;;;35.39;57.23;97593.31;4957340;28;20553;-71
2022/08/04 10:19:03;;;;;;;24.48;12.20;;;;;;;35.54;59.36;97580.06;4918561;28;20051;-75
2022/08/04 10:21:57;;;;;;;24.63;12.25;;;;;;;35.75;58.82;97581.13;4955539;28;20047;-71
2022/08/04 10:25:30;;;;;;;22.33;11.43;;;;;;;35.65;56.95;97575.19;4961239;28;20050;-75
2022/08/04 10:29:25;;;;;;;18.85;11.57;;;;;;;35.71;55.99;97574.78;4958013;28;20066;-72
2022/08/04 10:32:34;;;;;;;20.73;11.18;;;;;;;35.85;54.00;97571.91;4936991;28;20039;-73
2022/08/04 10:35:25;;;;;;;19.25;13.02;;;;;;;35.49;56.50;97564.53;4957405;28;20061;-73
2022/08/04 10:38:39;;;;;;;30.08;13.30;;;;;;;35.55;57.16;97559.31;4941056;28;20101;-73
2022/08/04 10:41:32;;;;;;;28.33;13.25;;;;;;;35.87;56.27;97552.75;4926661;28;20752;-73
2022/08/04 10:44:36;;;;;;;22.75;12.90;;;;;;;35.80;56.53;97544.44;4957786;28;20046;-74
2022/08/04 10:47:29;;;;;;;19.90;12.77;;;;;;;35.84;54.20;97531.22;4955825;28;20055;-73
2022/08/04 10:50:21;;;;;;;24.95;13.23;;;;;;;36.15;56.85;97523.75;4958002;28;20162;-73
2022/08/04 10:53:17;;;;;;;24.95;12.88;;;;;;;36.02;55.65;97523.50;4957930;28;20054;-71
2022/08/04 10:56:16;;;;;;;18.55;13.35;;;;;;;35.98;53.30;97531.13;4957256;28;20047;-72
2022/08/04 10:59:22;;;;;;;23.30;13.10;;;;;;;35.90;54.70;97537.94;4957778;28;20150;-73
2022/08/04 11:02:26;;;;;;;23.97;13.60;;;;;;;35.61;56.25;97532.56;4954632;28;20712;-73
2022/08/04 11:05:48;;;;;;;22.75;13.25;;;;;;;35.78;56.43;97518.91;4953266;28;20542;-72
2022/08/04 11:08:53;;;;;;;35.37;14.87;;;;;;;35.57;58.89;97515.06;4603912;28;10000312;-74
2022/08/04 11:11:46;;;;;;;21.33;13.70;;;;;;;35.25;58.02;97510.50;4963781;28;20300;-74
2022/08/04 11:14:53;;;;;;;19.30;13.77;;;;;;;35.55;57.74;97516.69;4952182;28;20792;-69
2022/08/04 11:17:49;;;;;;;26.35;14.38;;;;;;;35.72;60.52;97517.78;4937508;28;20077;-73
2022/08/04 11:20:48;;;;;;;21.02;13.70;;;;;;;35.45;59.38;97521.16;4948418;28;20047;-72
2022/08/04 11:23:36;;;;;;;21.70;13.27;;;;;;;35.37;59.61;97509.25;4967657;28;20061;-74
2022/08/04 11:26:30;;;;;;;20.80;13.45;;;;;;;35.39;59.89;97504.03;4948199;28;20051;-75
2022/08/04 11:29:35;;;;;;;24.40;13.43;;;;;;;35.38;59.23;97499.66;4944334;28;20063;-74
2022/08/04 11:32:37;;;;;;;23.67;12.90;;;;;;;34.94;58.52;97497.53;4953282;28;20475;-76
2022/08/04 11:35:34;;;;;;;23.10;12.65;;;;;;;35.09;58.43;97504.59;4962507;28;20825;-72
2022/08/04 11:38:35;;;;;;;26.20;12.85;;;;;;;35.23;58.89;97504.53;4961940;28;20051;-74
2022/08/04 11:41:25;;;;;;;22.75;12.77;;;;;;;35.16;60.24;97507.34;4957385;28;20138;-74
2022/08/04 11:44:24;;;;;;;18.40;13.27;;;;;;;35.06;60.07;97502.63;4950733;28;20082;-73
2022/08/04 11:47:31;;;;;;;22.80;13.05;;;;;;;35.15;58.98;97507.75;4949921;28;20054;-70
2022/08/04 11:50:41;;;;;;;23.15;14.02;;;;;;;35.19;60.27;97503.75;4947347;28;20370;-72
2022/08/04 11:53:43;;;;;;;;;;;;;;;35.26;59.73;97503.72;4968224;28;20047;-72
2022/08/04 11:56:32;;;;;;;22.67;13.35;;;;;;;35.14;59.41;97501.41;4963631;28;19930;-70
2022/08/04 11:59:21;;;;;;;17.30;13.25;;;;;;;35.08;59.86;97498.25;4966022;28;20051;-70
2022/08/04 12:02:40;;;;;;;25.17;14.52;;;;;;;35.10;59.74;97492.22;4969158;28;20085;-70
2022/08/04 12:05:36;;;;;;;23.20;13.43;;;;;;;34.90;60.90;97489.97;4949700;28;20046;-69
2022/08/04 12:08:56;;;;;;;19.50;12.70;;;;;;;34.86;60.18;97497.56;4969489;28;20078;-71
2022/08/04 12:11:56;;;;;;;25.58;13.25;;;;;;;35.03;60.02;97495.09;4968256;28;20051;-69
2022/08/04 12:14:56;;;;;;;25.77;13.27;;;;;;;35.13;60.68;97499.00;4961875;28;20046;-73
2022/08/04 12:18:40;;;;;;;20.27;12.25;;;;;;;35.07;59.99;97499.44;4973510;28;20254;-71
2022/08/04 12:21:33;;;;;;;20.83;12.15;;;;;;;35.13;60.82;97494.22;4874726;29;20789;-70
2022/08/04 12:24:36;;;;;;;22.30;13.40;;;;;;;35.10;61.56;97493.06;4966232;28;20368;-71
2022/08/04 12:27:35;;;;;;;22.08;12.65;;;;;;;34.90;62.72;97498.31;4968607;28;20672;-67
2022/08/04 12:30:25;;;;;;;24.88;11.95;;;;;;;34.89;61.15;97505.13;4968173;28;20070;-65
2022/08/04 12:33:40;;;;;;;26.13;12.80;;;;;;;34.85;60.28;97512.69;4968455;28;20054;-68
2022/08/04 12:37:04;;;;;;;23.13;11.57;;;;;;;34.89;60.65;97507.91;4968607;28;20085;-67
2022/08/04 12:39:50;;;;;;;21.40;11.85;;;;;;;34.89;60.81;97507.91;4968045;28;20039;-67
2022/08/04 12:43:11;;;;;;;18.92;11.88;;;;;;;34.89;60.62;97507.91;4949903;28;20070;-67
2022/08/04 12:45:53;;;;;;;28.08;11.55;;;;;;;34.88;60.92;97511.88;4917932;29;20047;-67
2022/08/04 12:48:53;;;;;;;20.40;11.95;;;;;;;34.82;61.64;97513.50;4949019;28;20062;-67
2022/08/04 12:51:49;;;;;;;24.65;12.02;;;;;;;34.97;61.83;97510.63;4951395;28;20050;-67
2022/08/04 12:55:01;;;;;;;18.20;12.05;;;;;;;34.65;61.06;97514.34;4961785;28;20042;-66
2022/08/04 12:57:40;;;;;;;22.13;11.88;;;;;;;34.87;61.71;97510.31;4969358;28;20074;-68
2022/08/04 13:00:34;;;;;;;19.80;11.18;;;;;;;34.43;61.75;97513.63;4950950;28;20130;-67
2022/08/04 13:03:26;;;;;;;22.85;11.55;;;;;;;34.76;62.40;97509.56;4968718;28;20054;-67
2022/08/04 13:06:16;;;;;;;25.40;11.50;;;;;;;34.81;62.63;97511.91;4968160;28;20050;-67
2022/08/04 13:09:13;;;;;;;17.05;11.75;;;;;;;34.89;61.69;97518.22;4947982;28;20055;-67
2022/08/04 13:12:10;;;;;;;20.52;11.73;;;;;;;34.71;61.07;97509.97;4934983;28;20604;-67
2022/08/04 13:14:57;;;;;;;16.88;10.98;;;;;;;34.87;60.20;97515.88;4956824;28;20050;-67
2022/08/04 13:18:02;;;;;;;25.17;12.60;;;;;;;34.88;61.82;97522.25;4944346;28;20042;-68
2022/08/04 13:20:38;;;;;;;27.40;11.90;;;;;;;34.66;60.93;97510.34;4951043;28;20499;-68
2022/08/04 13:23:27;;;;;;;22.17;12.18;;;;;;;34.65;60.61;97522.72;4950867;28;20121;-69
2022/08/04 13:26:38;;;;;;;20.42;11.70;;;;;;;34.86;61.24;97530.22;4959285;28;20149;-68
2022/08/04 13:29:42;;;;;;;22.90;11.93;;;;;;;34.82;59.82;97529.44;4966465;28;20117;-68
2022/08/04 13:32:43;;;;;;;25.08;12.63;;;;;;;34.61;61.19;97527.50;4959865;28;20407;-68
2022/08/04 13:35:36;;;;;;;26.73;12.00;;;;;;;34.61;59.96;97528.28;4934903;28;20047;-69
2022/08/04 13:38:37;;;;;;;18.97;12.33;;;;;;;34.46;61.44;97530.31;4965180;28;20153;-70
2022/08/04 13:41:28;;;;;;;19.95;11.68;;;;;;;34.44;61.19;97538.28;4946901;28;20053;-71
2022/08/04 13:44:15;;;;;;;26.42;11.98;;;;;;;34.48;62.41;97544.63;4961242;28;20519;-68
2022/08/04 13:47:19;;;;;;;28.25;12.70;;;;;;;34.45;62.96;97541.84;4944160;28;20055;-71
2022/08/04 13:50:28;;;;;;;20.77;11.80;;;;;;;34.42;62.87;97551.81;4962195;28;20051;-69